Main page
METAR-TAF:

METAR-TAF

Airports :

Boscombe Down, England

MoD Boscombe Down

latitude: 51-10N, longitude: 001-45W, elevation: 124 m

Current weather observation

The report was made 1 hour and 22 minutes ago, at 00:50 UTC
Wind 4 kt from the North/Northwest
Temperature 12°C
Humidity 88%
Pressure 996 hPa
Visibility 10 km or more
light rain

METAR: EGDM 290050Z AUTO 34004KT 9999 -RA SCT013/// BKN050/// 12/10 Q0996

Time: 03:12 (02:12 UTC)

Forecast

The report was made 11 hours and 17 minutes ago, at 14:55 UTC
Forecast valid from 28 at 15 UTC to 28 at 18 UTC
Wind 8 kt from the North
Visibility 10 km or more
Broken clouds at a height of 1000 ft
Becoming
from 28 at 15 UTC to 28 at 17 UTC
Broken clouds at a height of 1500 ft
Probability 30% :
Temporary
from 28 at 16 UTC to 28 at 18 UTC
Few clouds at a height of 1500 ft
Broken clouds at a height of 3000 ft

TAF: EGDM 281455Z 2815/2818 01008KT 9999 BKN010 BECMG 2815/2817 BKN015 PROB30 TEMPO 2816/2818 FEW015 BKN030

Weather observations and forecasts of more than 4000 airports (METAR and TAF reports).

The available stations are represented by yellow and red dots on the map.

Hover mouse over dot to see the name of the station.

Then click to see weather observations and forecasts.

To change the map : click on the green buttons with a black cross to zoom in, on the green button with a dash to zoom out, or on the green arrows for adjacent maps.


METAR-TAF: